createdAt,value
2016-07-30T00:00:30.348Z,0
2016-07-30T00:01:30.349Z,0
2016-07-30T00:02:30.360Z,0
2016-07-30T00:03:30.347Z,0
2016-07-30T00:04:30.362Z,0
2016-07-30T00:05:31.877Z,0
2016-07-30T00:06:33.178Z,0
2016-07-30T00:07:32.264Z,0
2016-07-30T00:08:30.911Z,0
2016-07-30T00:09:30.356Z,0
2016-07-30T00:10:30.351Z,0
2016-07-30T00:11:30.553Z,0
2016-07-30T00:12:30.790Z,0
2016-07-30T00:13:30.354Z,0
2016-07-30T00:14:30.350Z,0
2016-07-30T00:15:30.858Z,0
2016-07-30T00:16:30.382Z,0
2016-07-30T00:17:31.726Z,0
2016-07-30T00:18:30.353Z,0
2016-07-30T00:19:30.348Z,0
2016-07-30T00:20:30.831Z,0
2016-07-30T00:21:30.359Z,0
2016-07-30T00:22:30.361Z,0
2016-07-30T00:23:30.347Z,0
2016-07-30T00:24:30.348Z,0
2016-07-30T00:25:30.344Z,0
2016-07-30T00:26:30.347Z,0
2016-07-30T00:27:30.345Z,0
2016-07-30T00:28:30.957Z,0
2016-07-30T00:29:45.570Z,0
2016-07-30T00:30:32.105Z,0
2016-07-30T00:31:30.603Z,0
2016-07-30T00:32:31.200Z,0
2016-07-30T00:33:30.444Z,0
2016-07-30T00:34:30.350Z,0
2016-07-30T00:35:30.357Z,0
2016-07-30T00:36:30.351Z,0
2016-07-30T00:37:30.344Z,0
2016-07-30T00:39:30.907Z,0
2016-07-30T00:40:30.347Z,0
2016-07-30T00:42:30.551Z,0
2016-07-30T00:43:30.351Z,0
2016-07-30T00:44:30.854Z,0
2016-07-30T00:45:30.341Z,0
2016-07-30T00:46:30.343Z,0
2016-07-30T00:47:30.349Z,0
2016-07-30T00:48:30.350Z,0
2016-07-30T00:49:30.347Z,0
2016-07-30T00:50:30.343Z,0
2016-07-30T00:51:30.344Z,0
2016-07-30T00:52:30.442Z,0
2016-07-30T00:53:30.347Z,0
2016-07-30T00:54:30.343Z,0
2016-07-30T00:55:30.354Z,0
2016-07-30T00:56:30.342Z,0
2016-07-30T00:57:30.356Z,0
2016-07-30T00:58:30.351Z,0
2016-07-30T00:59:30.350Z,0
2016-07-30T01:00:30.343Z,0
2016-07-30T01:01:30.348Z,0
2016-07-30T01:02:30.354Z,0
2016-07-30T01:03:30.342Z,0
2016-07-30T01:04:30.348Z,0
2016-07-30T01:05:30.344Z,0
2016-07-30T01:06:30.347Z,0
2016-07-30T01:07:30.364Z,0
2016-07-30T01:08:30.339Z,0
2016-07-30T01:09:30.348Z,0
2016-07-30T01:10:30.348Z,0
2016-07-30T01:11:30.346Z,0
2016-07-30T01:12:30.347Z,0
2016-07-30T01:13:30.350Z,0
2016-07-30T01:14:31.042Z,0
2016-07-30T01:15:31.042Z,0
2016-07-30T01:16:30.340Z,0
2016-07-30T01:17:30.345Z,0
2016-07-30T01:18:30.351Z,0
2016-07-30T01:19:30.344Z,0
2016-07-30T01:20:30.351Z,0
2016-07-30T01:21:30.345Z,0
2016-07-30T01:22:30.346Z,0
2016-07-30T01:23:30.351Z,0
2016-07-30T01:24:31.168Z,0
2016-07-30T01:25:31.166Z,0
2016-07-30T01:26:32.923Z,0
2016-07-30T01:27:31.146Z,0
2016-07-30T01:28:31.170Z,0
2016-07-30T01:29:30.692Z,0
2016-07-30T01:30:30.339Z,0
2016-07-30T01:31:31.043Z,0
2016-07-30T01:32:30.345Z,0
2016-07-30T01:33:32.660Z,0
2016-07-30T01:35:31.748Z,0
2016-07-30T01:36:30.478Z,0
2016-07-30T01:37:31.017Z,0
2016-07-30T01:38:30.932Z,0
2016-07-30T01:39:30.342Z,0
2016-07-30T01:40:30.507Z,0
2016-07-30T01:41:30.335Z,0
2016-07-30T01:42:30.344Z,0
2016-07-30T01:43:30.343Z,0
2016-07-30T01:44:30.341Z,0
2016-07-30T01:45:30.348Z,0
2016-07-30T01:46:30.337Z,0
2016-07-30T01:47:32.349Z,0
2016-07-30T01:48:30.543Z,0
2016-07-30T01:49:30.939Z,0
2016-07-30T01:51:30.342Z,0
2016-07-30T01:52:30.353Z,0
2016-07-30T01:53:30.537Z,0
2016-07-30T01:54:30.348Z,0
2016-07-30T01:55:30.350Z,0
2016-07-30T01:56:31.496Z,0
2016-07-30T01:57:31.998Z,0
2016-07-30T01:58:30.333Z,0
2016-07-30T01:59:45.258Z,0
2016-07-30T02:00:30.347Z,0
2016-07-30T02:01:30.434Z,0
2016-07-30T02:02:30.342Z,0
2016-07-30T02:03:30.488Z,0
2016-07-30T02:04:30.331Z,0
2016-07-30T02:05:30.340Z,0
2016-07-30T02:06:30.338Z,0
2016-07-30T02:07:30.336Z,0
2016-07-30T02:08:30.337Z,0
2016-07-30T02:09:30.330Z,0
2016-07-30T02:10:30.339Z,0
2016-07-30T02:11:30.334Z,0
2016-07-30T02:12:30.328Z,0
2016-07-30T02:13:30.333Z,0
2016-07-30T02:14:30.329Z,0
2016-07-30T02:15:30.327Z,0
2016-07-30T02:16:30.337Z,0
2016-07-30T02:17:30.328Z,0
2016-07-30T02:18:30.333Z,0
2016-07-30T02:19:30.327Z,0
2016-07-30T02:20:30.324Z,0
2016-07-30T02:21:30.330Z,0
2016-07-30T02:23:30.331Z,0
2016-07-30T02:24:30.322Z,0
2016-07-30T02:25:30.320Z,0
2016-07-30T02:26:30.323Z,0
2016-07-30T02:27:30.324Z,0
2016-07-30T02:28:30.325Z,0
2016-07-30T02:29:30.317Z,0
2016-07-30T02:30:30.312Z,0
2016-07-30T02:31:30.325Z,0
2016-07-30T02:32:30.326Z,0
2016-07-30T02:33:30.311Z,0
2016-07-30T02:34:30.312Z,0
2016-07-30T02:35:30.308Z,0
2016-07-30T02:36:30.309Z,0
2016-07-30T02:38:30.307Z,4
2016-07-30T02:39:30.310Z,4
2016-07-30T02:40:30.305Z,4
2016-07-30T02:41:30.311Z,0
2016-07-30T02:44:32.748Z,4
2016-07-30T02:45:31.761Z,4
2016-07-30T02:46:30.598Z,4
2016-07-30T02:47:30.395Z,8
2016-07-30T02:48:30.291Z,4
2016-07-30T02:49:30.307Z,4
2016-07-30T02:50:30.289Z,8
2016-07-30T02:51:31.809Z,12
2016-07-30T02:53:31.008Z,12
2016-07-30T02:54:30.751Z,12
2016-07-30T02:55:30.284Z,16
2016-07-30T02:56:30.336Z,20
2016-07-30T02:57:30.286Z,20
2016-07-30T02:58:30.285Z,24
2016-07-30T02:59:30.378Z,24
2016-07-30T03:00:30.280Z,32
2016-07-30T03:01:30.268Z,36
2016-07-30T03:02:30.276Z,40
2016-07-30T03:03:30.277Z,48
2016-07-30T03:04:30.274Z,52
2016-07-30T03:05:45.191Z,60
2016-07-30T03:06:45.338Z,68
2016-07-30T03:08:30.470Z,84
2016-07-30T03:09:31.669Z,100
2016-07-30T03:10:30.264Z,112
2016-07-30T03:11:30.257Z,124
2016-07-30T03:12:30.262Z,136
2016-07-30T03:13:30.959Z,148
2016-07-30T03:14:45.920Z,168
2016-07-30T03:15:45.179Z,188
2016-07-30T03:16:30.252Z,204
2016-07-30T03:17:30.248Z,220
2016-07-30T03:18:45.516Z,244
2016-07-30T03:19:30.248Z,264
2016-07-30T03:20:30.243Z,288
2016-07-30T03:21:30.245Z,312
2016-07-30T03:23:30.242Z,360
2016-07-30T03:24:30.242Z,384
2016-07-30T03:25:30.236Z,408
2016-07-30T03:26:30.243Z,440
2016-07-30T03:27:30.235Z,480
2016-07-30T03:28:30.234Z,524
2016-07-30T03:29:30.227Z,576
2016-07-30T03:30:30.233Z,624
2016-07-30T03:31:30.226Z,672
2016-07-30T03:32:30.227Z,712
2016-07-30T03:33:30.223Z,760
2016-07-30T03:34:30.217Z,800
2016-07-30T03:35:30.216Z,836
2016-07-30T03:36:30.228Z,868
2016-07-30T03:37:30.217Z,900
2016-07-30T03:38:30.220Z,940
2016-07-30T03:39:30.219Z,992
2016-07-30T03:40:30.216Z,1036
2016-07-30T03:41:30.204Z,1064
2016-07-30T03:42:30.212Z,1092
2016-07-30T03:43:30.217Z,1128
2016-07-30T03:44:30.209Z,1184
2016-07-30T03:45:30.207Z,1256
2016-07-30T03:46:30.201Z,1344
2016-07-30T03:47:30.202Z,1436
2016-07-30T03:48:30.203Z,1536
2016-07-30T03:49:30.198Z,1644
2016-07-30T03:50:30.197Z,1764
2016-07-30T03:51:30.199Z,1884
2016-07-30T03:52:30.196Z,2008
2016-07-30T03:53:30.192Z,2132
2016-07-30T03:54:30.193Z,2276
2016-07-30T03:55:30.186Z,2420
2016-07-30T03:56:30.184Z,2556
2016-07-30T03:57:30.188Z,2696
2016-07-30T03:58:30.182Z,2828
2016-07-30T03:59:30.182Z,2968
2016-07-30T04:00:31.876Z,3164
2016-07-30T04:01:33.309Z,3412
2016-07-30T04:02:31.852Z,3736
2016-07-30T04:03:31.950Z,4084
2016-07-30T04:04:31.673Z,4428
2016-07-30T04:05:30.177Z,4724
2016-07-30T04:06:30.206Z,4960
2016-07-30T04:07:30.173Z,5128
2016-07-30T04:08:30.170Z,5176
2016-07-30T04:09:32.847Z,5104
2016-07-30T04:10:31.165Z,5004
2016-07-30T04:12:30.867Z,4900
2016-07-30T04:13:30.747Z,4964
2016-07-30T04:14:30.164Z,4916
2016-07-30T04:15:30.249Z,4876
2016-07-30T04:16:30.166Z,4752
2016-07-30T04:17:30.158Z,4628
2016-07-30T04:18:30.161Z,4676
2016-07-30T04:19:30.161Z,5096
2016-07-30T04:20:30.161Z,5604
2016-07-30T04:21:30.160Z,5956
2016-07-30T04:22:30.155Z,6332
2016-07-30T04:23:32.408Z,6540
2016-07-30T04:24:30.812Z,6712
2016-07-30T04:25:30.172Z,6780
2016-07-30T04:26:30.619Z,7052
2016-07-30T04:27:30.710Z,7284
2016-07-30T04:28:30.165Z,7084
2016-07-30T04:29:30.160Z,7316
2016-07-30T04:30:30.164Z,7548
2016-07-30T04:31:30.156Z,7192
2016-07-30T04:32:45.578Z,6456
2016-07-30T04:33:45.827Z,6292
2016-07-30T04:34:30.467Z,6204
2016-07-30T04:35:30.161Z,6164
2016-07-30T04:36:30.472Z,6260
2016-07-30T04:37:30.165Z,6484
2016-07-30T04:38:30.571Z,6628
2016-07-30T04:39:30.163Z,6732
2016-07-30T04:40:30.269Z,7420
2016-07-30T04:41:30.175Z,7696
2016-07-30T04:42:30.170Z,8320
2016-07-30T04:43:30.176Z,9184
2016-07-30T04:44:30.171Z,9324
2016-07-30T04:45:30.176Z,9420
2016-07-30T04:46:30.180Z,9500
2016-07-30T04:47:30.179Z,9572
2016-07-30T04:48:30.174Z,9304
2016-07-30T04:49:30.190Z,9436
2016-07-30T04:50:30.196Z,9724
2016-07-30T04:51:30.186Z,9732
2016-07-30T04:52:30.285Z,10444
2016-07-30T04:53:30.190Z,11328
2016-07-30T04:54:30.193Z,12324
2016-07-30T04:55:30.191Z,13732
2016-07-30T04:56:30.193Z,14240
2016-07-30T04:57:30.213Z,13888
2016-07-30T04:58:30.200Z,12540
2016-07-30T04:59:30.202Z,11244
2016-07-30T05:00:30.201Z,8408
2016-07-30T05:01:30.201Z,7700
2016-07-30T05:02:30.203Z,7348
2016-07-30T05:03:30.209Z,7100
2016-07-30T05:04:30.208Z,6820
2016-07-30T05:05:30.222Z,6656
2016-07-30T05:06:30.218Z,6468
2016-07-30T05:07:30.231Z,6400
2016-07-30T05:08:30.225Z,6296
2016-07-30T05:09:30.221Z,6488
2016-07-30T05:10:30.236Z,6732
2016-07-30T05:11:30.241Z,6868
2016-07-30T05:12:30.244Z,6708
2016-07-30T05:13:30.248Z,6172
2016-07-30T05:14:30.247Z,5712
2016-07-30T05:15:30.251Z,5864
2016-07-30T05:16:30.252Z,6396
2016-07-30T05:17:30.248Z,6968
2016-07-30T05:19:31.174Z,8064
2016-07-30T05:20:30.258Z,8584
2016-07-30T05:21:31.139Z,9032
2016-07-30T05:22:31.621Z,9340
2016-07-30T05:23:30.808Z,9544
2016-07-30T05:24:30.273Z,9688
2016-07-30T05:25:30.282Z,9788
2016-07-30T05:26:30.282Z,9904
2016-07-30T05:27:30.282Z,10200
2016-07-30T05:28:33.668Z,10772
2016-07-30T05:29:32.998Z,11300
2016-07-30T05:30:32.295Z,11836
2016-07-30T05:31:32.235Z,12272
2016-07-30T05:32:30.292Z,13192
2016-07-30T05:33:31.180Z,11152
2016-07-30T05:34:30.297Z,10708
2016-07-30T05:35:30.303Z,10660
2016-07-30T05:36:30.317Z,10864
2016-07-30T05:37:30.314Z,11124
2016-07-30T05:38:30.312Z,11320
2016-07-30T05:39:30.309Z,11308
2016-07-30T05:40:30.320Z,11404
2016-07-30T05:41:30.330Z,10880
2016-07-30T05:42:31.023Z,10240
2016-07-30T05:43:30.733Z,10008
2016-07-30T05:44:30.598Z,9988
2016-07-30T05:45:30.832Z,10440
2016-07-30T05:47:30.340Z,10996
2016-07-30T05:48:30.645Z,11068
2016-07-30T05:49:30.497Z,11072
2016-07-30T05:50:30.354Z,10776
2016-07-30T05:51:31.604Z,10632
2016-07-30T05:52:31.557Z,10592
2016-07-30T05:53:30.370Z,10580
2016-07-30T05:54:31.113Z,10820
2016-07-30T05:55:31.467Z,10864
2016-07-30T05:56:30.517Z,11240
2016-07-30T05:57:30.372Z,11712
2016-07-30T05:58:30.385Z,12436
2016-07-30T05:59:30.379Z,13424
2016-07-30T06:00:30.385Z,13916
2016-07-30T06:01:30.389Z,14368
2016-07-30T06:02:30.385Z,14928
2016-07-30T06:03:30.386Z,15124
2016-07-30T06:04:30.394Z,16960
2016-07-30T06:05:30.402Z,14568
2016-07-30T06:06:30.402Z,14212
2016-07-30T06:07:30.403Z,14288
2016-07-30T06:08:30.422Z,14496
2016-07-30T06:09:30.415Z,14568
2016-07-30T06:10:30.417Z,14856
2016-07-30T06:11:30.412Z,14860
2016-07-30T06:12:30.418Z,14500
2016-07-30T06:13:30.429Z,14028
2016-07-30T06:14:30.424Z,13856
2016-07-30T06:15:30.443Z,14108
2016-07-30T06:16:30.435Z,14724
2016-07-30T06:17:30.435Z,14832
2016-07-30T06:18:30.456Z,14532
2016-07-30T06:19:30.458Z,14304
2016-07-30T06:20:31.152Z,14060
2016-07-30T06:21:30.457Z,13832
2016-07-30T06:22:30.469Z,13740
2016-07-30T06:23:30.709Z,13756
2016-07-30T06:24:30.469Z,13664
2016-07-30T06:25:30.465Z,13676
2016-07-30T06:26:30.481Z,13740
2016-07-30T06:27:30.481Z,13888
2016-07-30T06:28:30.485Z,14112
2016-07-30T06:29:30.491Z,14332
2016-07-30T06:30:30.493Z,14504
2016-07-30T06:31:30.496Z,14636
2016-07-30T06:32:30.505Z,14720
2016-07-30T06:33:30.502Z,14712
2016-07-30T06:34:30.511Z,14776
2016-07-30T06:35:30.519Z,14468
2016-07-30T06:36:30.523Z,14208
2016-07-30T06:37:33.385Z,14168
2016-07-30T06:38:33.730Z,14292
2016-07-30T06:39:30.529Z,14440
2016-07-30T06:40:31.784Z,14520
2016-07-30T06:41:31.878Z,14416
2016-07-30T06:42:31.032Z,14212
2016-07-30T06:43:30.547Z,13968
2016-07-30T06:44:30.550Z,13784
2016-07-30T06:45:30.560Z,13848
2016-07-30T06:46:31.338Z,14104
2016-07-30T06:47:32.077Z,14504
2016-07-30T06:48:32.410Z,15040
2016-07-30T06:49:31.129Z,15624
2016-07-30T06:50:31.651Z,16576
2016-07-30T06:51:31.112Z,17568
2016-07-30T06:52:30.643Z,18560
2016-07-30T06:54:30.592Z,20032
2016-07-30T06:55:30.606Z,20640
2016-07-30T06:56:30.609Z,21408
2016-07-30T06:57:30.630Z,23968
2016-07-30T06:58:30.627Z,28224
2016-07-30T06:59:30.626Z,33952
2016-07-30T07:00:46.404Z,37984
2016-07-30T07:01:31.935Z,38592
2016-07-30T07:02:30.793Z,35616
2016-07-30T07:03:45.570Z,29088
2016-07-30T07:04:30.657Z,25088
2016-07-30T07:05:30.655Z,24032
2016-07-30T07:06:30.672Z,25376
2016-07-30T07:07:30.667Z,28064
2016-07-30T07:09:31.735Z,25504
2016-07-30T07:10:32.340Z,23808
2016-07-30T07:11:30.688Z,22752
2016-07-30T07:12:31.096Z,22592
2016-07-30T07:13:30.755Z,23968
2016-07-30T07:14:31.272Z,25856
2016-07-30T07:15:30.774Z,27520
2016-07-30T07:16:30.731Z,39520
2016-07-30T07:17:31.428Z,38176
2016-07-30T07:18:30.740Z,39840
2016-07-30T07:19:30.758Z,40512
2016-07-30T07:20:30.757Z,41248
2016-07-30T07:21:30.766Z,44064
2016-07-30T07:22:30.778Z,45728
2016-07-30T07:24:30.792Z,39712
2016-07-30T07:25:30.796Z,41440
2016-07-30T07:26:30.801Z,62144
2016-07-30T07:27:30.820Z,45440
2016-07-30T07:28:30.827Z,46816
2016-07-30T07:29:30.836Z,39232
2016-07-30T07:30:30.846Z,38912
2016-07-30T07:31:30.850Z,43200
2016-07-30T07:32:30.864Z,48928
2016-07-30T07:33:30.880Z,47584
2016-07-30T07:34:30.882Z,49952
2016-07-30T07:35:30.903Z,48768
2016-07-30T07:36:30.911Z,59936
2016-07-30T07:37:30.932Z,71424
2016-07-30T07:39:30.942Z,47264
2016-07-30T07:40:30.943Z,55232
2016-07-30T07:41:30.954Z,42144
2016-07-30T07:42:30.970Z,45856
2016-07-30T07:43:30.987Z,45664
2016-07-30T07:44:30.999Z,53792
2016-07-30T07:45:31.015Z,57568
2016-07-30T07:46:31.015Z,56576
2016-07-30T07:47:31.026Z,53504
2016-07-30T07:48:31.040Z,55552
2016-07-30T07:49:31.052Z,44864
2016-07-30T07:50:31.766Z,56544
2016-07-30T07:51:31.073Z,49344
2016-07-30T07:52:31.084Z,39712
2016-07-30T07:54:31.115Z,53088
2016-07-30T07:55:32.642Z,44576
2016-07-30T07:56:32.585Z,38400
2016-07-30T07:57:33.327Z,39584
2016-07-30T07:58:32.431Z,43136
2016-07-30T07:59:31.180Z,39104
2016-07-30T08:00:31.182Z,39264
2016-07-30T08:01:31.200Z,36704
2016-07-30T08:02:31.559Z,37728
2016-07-30T08:03:31.222Z,43520
2016-07-30T08:04:33.979Z,37696
2016-07-30T08:05:34.093Z,34592
2016-07-30T08:06:33.847Z,35808
2016-07-30T08:07:33.527Z,38144
2016-07-30T08:08:32.888Z,52064
2016-07-30T08:09:31.297Z,61088
2016-07-30T08:10:31.316Z,77312
2016-07-30T08:11:31.333Z,69632
2016-07-30T08:12:31.341Z,61120
2016-07-30T08:13:31.361Z,46624
2016-07-30T08:14:31.380Z,59008
2016-07-30T08:15:31.377Z,65856
2016-07-30T08:16:31.387Z,65920
2016-07-30T08:17:31.407Z,51392
2016-07-30T08:18:46.786Z,53440
2016-07-30T08:19:46.362Z,39072
2016-07-30T08:20:32.243Z,36864
2016-07-30T08:21:32.112Z,34592
2016-07-30T08:22:32.068Z,33792
2016-07-30T08:23:31.482Z,31424
2016-07-30T08:24:31.503Z,28768
2016-07-30T08:25:31.509Z,27232
2016-07-30T08:26:31.512Z,27072
2016-07-30T08:27:33.534Z,26880
2016-07-30T08:28:31.697Z,27200
2016-07-30T08:30:46.488Z,27008
2016-07-30T08:31:32.529Z,27392
2016-07-30T08:32:31.593Z,26976
2016-07-30T08:33:31.606Z,26144
2016-07-30T08:34:31.622Z,30784
2016-07-30T08:35:31.624Z,27808
2016-07-30T08:36:31.633Z,28384
2016-07-30T08:37:31.649Z,27232
2016-07-30T08:38:31.665Z,26528
2016-07-30T08:39:31.671Z,26016
2016-07-30T08:40:31.686Z,26048
2016-07-30T08:41:32.392Z,26848
2016-07-30T08:42:31.705Z,29344
2016-07-30T08:43:32.417Z,30624
2016-07-30T08:44:31.728Z,30080
2016-07-30T08:45:31.734Z,29856
2016-07-30T08:46:31.746Z,28928
2016-07-30T08:47:31.755Z,28704
2016-07-30T08:48:31.765Z,27808
2016-07-30T08:49:31.771Z,27552
2016-07-30T08:50:31.782Z,27776
2016-07-30T08:51:31.803Z,28800
2016-07-30T08:52:31.919Z,28032
2016-07-30T08:53:31.823Z,25920
2016-07-30T08:54:31.833Z,25664
2016-07-30T08:55:31.828Z,25280
2016-07-30T08:56:31.855Z,25344
2016-07-30T08:57:31.858Z,23904
2016-07-30T08:58:31.861Z,22528
2016-07-30T08:59:31.891Z,23616
2016-07-30T09:00:31.892Z,23520
2016-07-30T09:01:31.890Z,23712
2016-07-30T09:02:31.902Z,25504
2016-07-30T09:03:31.915Z,26272
2016-07-30T09:04:31.923Z,26016
2016-07-30T09:05:31.934Z,26208
2016-07-30T09:06:31.951Z,26112
2016-07-30T09:07:31.960Z,28320
2016-07-30T09:08:31.963Z,29472
2016-07-30T09:09:31.981Z,31296
2016-07-30T09:10:31.989Z,32512
2016-07-30T09:11:31.989Z,33984
2016-07-30T09:12:31.996Z,35008
2016-07-30T09:13:34.024Z,33888
2016-07-30T09:14:34.558Z,32448
2016-07-30T09:15:34.802Z,29920
2016-07-30T09:16:32.885Z,28544
2016-07-30T09:17:32.045Z,27968
2016-07-30T09:18:33.265Z,28192
2016-07-30T09:19:32.071Z,28192
2016-07-30T09:20:32.074Z,28512
2016-07-30T09:21:32.146Z,28448
2016-07-30T09:23:34.824Z,29056
2016-07-30T09:24:33.531Z,28960
2016-07-30T09:25:34.342Z,30400
2016-07-30T09:26:32.131Z,31328
2016-07-30T09:27:33.509Z,31456
2016-07-30T09:28:32.155Z,31168
2016-07-30T09:29:32.158Z,28928
2016-07-30T09:30:32.176Z,27360
2016-07-30T09:31:32.177Z,27264
2016-07-30T09:32:32.189Z,27200
2016-07-30T09:33:32.203Z,26176
2016-07-30T09:34:32.204Z,24608
2016-07-30T09:35:32.216Z,23392
2016-07-30T09:36:32.231Z,22112
2016-07-30T09:37:47.408Z,19296
2016-07-30T09:38:47.569Z,17152
2016-07-30T09:40:47.482Z,14876
2016-07-30T09:41:33.089Z,14360
2016-07-30T09:42:32.284Z,13552
2016-07-30T09:43:33.085Z,12980
2016-07-30T09:44:32.400Z,12804
2016-07-30T09:45:32.301Z,12652
2016-07-30T09:46:47.235Z,12464
2016-07-30T09:48:32.380Z,11916
2016-07-30T09:49:47.816Z,11456
2016-07-30T09:50:32.847Z,11252
2016-07-30T09:51:33.361Z,11224
2016-07-30T09:52:32.429Z,11308
2016-07-30T09:53:32.383Z,11364
2016-07-30T09:54:32.389Z,11340
2016-07-30T09:55:32.392Z,11536
2016-07-30T09:56:33.107Z,12172
2016-07-30T09:57:32.404Z,12548
2016-07-30T09:58:32.411Z,12344
2016-07-30T09:59:32.412Z,11868
2016-07-30T10:00:32.432Z,11352
2016-07-30T10:01:32.447Z,11240
2016-07-30T10:02:32.442Z,11116
2016-07-30T10:03:32.469Z,11300
2016-07-30T10:04:32.459Z,11200
2016-07-30T10:05:32.456Z,10572
2016-07-30T10:06:32.467Z,9640
2016-07-30T10:07:32.478Z,9160
2016-07-30T10:08:32.479Z,9284
2016-07-30T10:09:32.489Z,9740
2016-07-30T10:10:32.507Z,10252
2016-07-30T10:11:32.507Z,10304
2016-07-30T10:12:32.515Z,10052
2016-07-30T10:13:32.515Z,9940
2016-07-30T10:14:32.524Z,9848
2016-07-30T10:15:32.531Z,10044
2016-07-30T10:16:32.529Z,10388
2016-07-30T10:17:32.534Z,10340
2016-07-30T10:18:32.548Z,10088
2016-07-30T10:19:32.547Z,10320
2016-07-30T10:20:32.567Z,10624
2016-07-30T10:21:32.565Z,10688
2016-07-30T10:22:33.276Z,11480
2016-07-30T10:23:32.582Z,12628
2016-07-30T10:24:32.588Z,12816
2016-07-30T10:25:32.592Z,11920
2016-07-30T10:26:32.586Z,11044
2016-07-30T10:27:32.597Z,10908
2016-07-30T10:28:32.618Z,11512
2016-07-30T10:29:32.611Z,12344
2016-07-30T10:30:32.616Z,13244
2016-07-30T10:31:32.625Z,14224
2016-07-30T10:32:35.382Z,15024
2016-07-30T10:33:34.657Z,15028
2016-07-30T10:34:33.777Z,15232
2016-07-30T10:35:33.503Z,15484
2016-07-30T10:36:33.086Z,15764
2016-07-30T10:37:32.660Z,16768
2016-07-30T10:38:32.654Z,18208
2016-07-30T10:40:32.673Z,19904
2016-07-30T10:41:33.309Z,19168
2016-07-30T10:42:33.193Z,17312
2016-07-30T10:43:34.874Z,15692
2016-07-30T10:44:33.046Z,14348
2016-07-30T10:45:33.019Z,13768
2016-07-30T10:46:32.701Z,14900
2016-07-30T10:47:33.259Z,16768
2016-07-30T10:48:32.720Z,17312
2016-07-30T10:49:32.722Z,16864
2016-07-30T10:50:32.722Z,17280
2016-07-30T10:51:32.743Z,16480
2016-07-30T10:52:32.739Z,14440
2016-07-30T10:53:32.740Z,13352
2016-07-30T10:55:33.804Z,11540
2016-07-30T10:56:32.904Z,10744
2016-07-30T10:57:32.918Z,10064
2016-07-30T10:58:33.275Z,9280
2016-07-30T11:00:33.133Z,8784
2016-07-30T11:01:32.779Z,9260
2016-07-30T11:02:32.833Z,10960
2016-07-30T11:03:32.795Z,15096
2016-07-30T11:05:48.327Z,18752
2016-07-30T11:06:33.864Z,18688
2016-07-30T11:07:33.526Z,19424
2016-07-30T11:08:34.321Z,19776
2016-07-30T11:10:32.833Z,20256
2016-07-30T11:11:32.835Z,21664
2016-07-30T11:12:32.842Z,21888
2016-07-30T11:13:32.846Z,20960
2016-07-30T11:14:32.856Z,19104
2016-07-30T11:15:32.858Z,17024
2016-07-30T11:16:32.868Z,16640
2016-07-30T11:17:32.863Z,17216
2016-07-30T11:18:32.873Z,16896
2016-07-30T11:19:32.880Z,17024
2016-07-30T11:20:32.879Z,18336
2016-07-30T11:21:32.879Z,19904
2016-07-30T11:22:32.891Z,22912
2016-07-30T11:23:32.890Z,23456
2016-07-30T11:25:32.900Z,22432
2016-07-30T11:26:32.907Z,21760
2016-07-30T11:27:32.920Z,21248
2016-07-30T11:28:32.921Z,19776
2016-07-30T11:29:32.933Z,17568
2016-07-30T11:30:32.933Z,16864
2016-07-30T11:31:32.936Z,17856
2016-07-30T11:32:32.947Z,19744
2016-07-30T11:33:32.949Z,21216
2016-07-30T11:34:32.954Z,21248
2016-07-30T11:35:32.960Z,20480
2016-07-30T11:36:32.967Z,19488
2016-07-30T11:37:32.968Z,20192
2016-07-30T11:38:32.984Z,21184
2016-07-30T11:40:32.994Z,21280
2016-07-30T11:41:32.994Z,21792
2016-07-30T11:42:33.001Z,21824
2016-07-30T11:43:33.008Z,22208
2016-07-30T11:44:33.011Z,23296
2016-07-30T11:45:33.023Z,23744
2016-07-30T11:46:33.020Z,23040
2016-07-30T11:47:33.032Z,24128
2016-07-30T11:48:33.032Z,25984
2016-07-30T11:49:33.041Z,28032
2016-07-30T11:50:33.591Z,28000
2016-07-30T11:51:33.861Z,26784
2016-07-30T11:52:34.269Z,26080
2016-07-30T11:53:34.565Z,26208
2016-07-30T11:54:33.077Z,27488
2016-07-30T11:55:33.078Z,27712
2016-07-30T11:56:33.662Z,28608
2016-07-30T11:57:33.107Z,29984
2016-07-30T11:58:33.095Z,28352
2016-07-30T11:59:35.269Z,27232
2016-07-30T12:01:35.060Z,28128
2016-07-30T12:02:34.278Z,27424
2016-07-30T12:03:33.131Z,25632
2016-07-30T12:04:33.141Z,21920
2016-07-30T12:05:33.158Z,18272
2016-07-30T12:06:33.283Z,16392
2016-07-30T12:07:33.165Z,16524
2016-07-30T12:08:33.879Z,18752
2016-07-30T12:09:33.884Z,19584
2016-07-30T12:10:33.182Z,20704
2016-07-30T12:11:33.198Z,22368
2016-07-30T12:12:33.205Z,23808
2016-07-30T12:13:49.031Z,24224
2016-07-30T12:14:33.914Z,24448
2016-07-30T12:15:48.446Z,25344
2016-07-30T12:17:33.340Z,26304
2016-07-30T12:18:34.297Z,26176
2016-07-30T12:19:33.257Z,25088
2016-07-30T12:20:33.268Z,24800
2016-07-30T12:21:33.262Z,25120
2016-07-30T12:23:49.001Z,24096
2016-07-30T12:26:48.281Z,22688
2016-07-30T12:27:33.321Z,22816
2016-07-30T12:28:33.326Z,22112
2016-07-30T12:29:33.328Z,22208
2016-07-30T12:30:33.345Z,22752
2016-07-30T12:31:33.349Z,23488
2016-07-30T12:32:33.358Z,24160
2016-07-30T12:33:33.364Z,23264
2016-07-30T12:34:33.370Z,21280
2016-07-30T12:35:33.386Z,19936
2016-07-30T12:36:33.390Z,18176
2016-07-30T12:37:33.390Z,17536
2016-07-30T12:38:33.398Z,18240
2016-07-30T12:39:33.409Z,17792
2016-07-30T12:40:33.420Z,17280
2016-07-30T12:41:33.429Z,17888
2016-07-30T12:42:33.433Z,19552
2016-07-30T12:43:33.441Z,21376
2016-07-30T12:44:33.447Z,21952
2016-07-30T12:45:33.464Z,22752
2016-07-30T12:46:33.471Z,22144
2016-07-30T12:47:33.472Z,22336
2016-07-30T12:48:33.499Z,22368
2016-07-30T12:49:33.488Z,24032
2016-07-30T12:50:33.502Z,22144
2016-07-30T12:51:33.507Z,21952
2016-07-30T12:52:33.525Z,22400
2016-07-30T12:53:33.521Z,18912
2016-07-30T12:54:33.539Z,17152
2016-07-30T12:55:33.541Z,16416
2016-07-30T12:56:33.550Z,18528
2016-07-30T12:57:33.563Z,20064
2016-07-30T12:58:33.571Z,20384
2016-07-30T12:59:33.577Z,18912
2016-07-30T13:00:33.587Z,18592
2016-07-30T13:01:34.288Z,18688
2016-07-30T13:02:33.597Z,18048
2016-07-30T13:03:33.603Z,17216
2016-07-30T13:04:33.614Z,17088
2016-07-30T13:05:33.625Z,17728
2016-07-30T13:06:33.635Z,17728
2016-07-30T13:07:33.636Z,17472
2016-07-30T13:08:35.763Z,18112
2016-07-30T13:10:36.598Z,22336
2016-07-30T13:11:34.008Z,24864
2016-07-30T13:12:35.273Z,23360
2016-07-30T13:13:33.685Z,22400
2016-07-30T13:14:33.683Z,22112
2016-07-30T13:15:33.701Z,21280
2016-07-30T13:16:33.710Z,18816
2016-07-30T13:17:35.427Z,17280
2016-07-30T13:18:35.468Z,16800
2016-07-30T13:19:35.557Z,18400
2016-07-30T13:20:35.621Z,19488
2016-07-30T13:21:35.258Z,19072
2016-07-30T13:22:33.765Z,18048
2016-07-30T13:23:33.895Z,18272
2016-07-30T13:24:33.770Z,15900
2016-07-30T13:25:33.776Z,13008
2016-07-30T13:26:33.791Z,11220
2016-07-30T13:27:34.488Z,10096
2016-07-30T13:28:33.805Z,9984
2016-07-30T13:29:33.809Z,11592
2016-07-30T13:30:33.822Z,14056
2016-07-30T13:31:35.631Z,16100
2016-07-30T13:32:49.406Z,17920
2016-07-30T13:33:35.493Z,19744
2016-07-30T13:34:33.851Z,21024
2016-07-30T13:35:33.860Z,21504
2016-07-30T13:36:34.967Z,22240
2016-07-30T13:37:33.873Z,22528
2016-07-30T13:38:33.882Z,20928
2016-07-30T13:39:33.899Z,18848
2016-07-30T13:40:35.052Z,15416
2016-07-30T13:42:34.612Z,13224
2016-07-30T13:43:33.946Z,13800
2016-07-30T13:44:34.334Z,15272
2016-07-30T13:45:33.940Z,16356
2016-07-30T13:46:33.946Z,15820
2016-07-30T13:47:33.949Z,14948
2016-07-30T13:48:33.956Z,12860
2016-07-30T13:49:33.972Z,11872
2016-07-30T13:50:34.679Z,11788
2016-07-30T13:51:33.988Z,10336
2016-07-30T13:52:33.987Z,8856
2016-07-30T13:53:33.997Z,7700
2016-07-30T13:54:34.004Z,7064
2016-07-30T13:55:34.026Z,6872
2016-07-30T13:56:34.021Z,6564
2016-07-30T13:57:34.041Z,6252